N852PS CYTF-CYZV

Flight info

Callsign N852PS
Flight time 0h 56m
Altitude 29000
Route KAVMU DCT YBC
Aircraft TBM8/L-SDFGRWY/S

Departure

Time 2026-05-03 21:20
Airport Alma Airport (CYTF)

Arrival

Time 2026-05-03 22:16
Airport Sept-Îles Airport (CYZV)
Time Latitude Longitude Altitude Speed Heading
2026-05-03 21:14 48.51012 -71.65195 433 ft 0 kts 328°
2026-05-03 21:18 48.51016 -71.65196 433 ft 3 kts 14°
2026-05-03 21:18 48.51022 -71.65143 433 ft 5 kts 56°
2026-05-03 21:18 48.51033 -71.65129 434 ft 5 kts 27°
2026-05-03 21:19 48.51090 -71.65094 432 ft 8 kts 26°
2026-05-03 21:19 48.51125 -71.65069 431 ft 0 kts 25°
2026-05-03 21:19 48.51132 -71.65059 431 ft 1 kts 107°
2026-05-03 21:19 48.51077 -71.64882 433 ft 45 kts 113°
2026-05-03 21:20 48.50872 -71.64200 456 ft 94 kts 117°
2026-05-03 21:20 48.50578 -71.63217 730 ft 109 kts 115°
2026-05-03 21:20 48.50254 -71.62117 1129 ft 124 kts 113°
2026-05-03 21:20 48.49911 -71.60799 1501 ft 144 kts 103°
2026-05-03 21:21 48.49877 -71.59303 2041 ft 141 kts 81°
2026-05-03 21:21 48.50017 -71.57845 2644 ft 141 kts 80°
2026-05-03 21:21 48.50117 -71.56368 3194 ft 143 kts 84°
2026-05-03 21:21 48.50172 -71.54855 3710 ft 146 kts 86°
2026-05-03 21:22 48.50209 -71.53287 4210 ft 150 kts 86°
2026-05-03 21:22 48.50242 -71.51699 4737 ft 153 kts 87°
2026-05-03 21:22 48.50278 -71.50098 5274 ft 153 kts 88°
2026-05-03 21:22 48.50314 -71.48498 5808 ft 153 kts 88°
2026-05-03 21:23 48.50353 -71.46816 6183 ft 166 kts 88°
2026-05-03 21:23 48.50386 -71.45033 6568 ft 175 kts 88°
2026-05-03 21:23 48.50424 -71.43150 6964 ft 184 kts 89°
2026-05-03 21:23 48.50465 -71.41190 7355 ft 191 kts 88°
2026-05-03 21:24 48.50511 -71.39155 7763 ft 197 kts 88°
2026-05-03 21:24 48.50566 -71.37066 8160 ft 202 kts 88°
2026-05-03 21:24 48.50618 -71.34929 8560 ft 206 kts 88°
2026-05-03 21:24 48.50668 -71.32779 8956 ft 209 kts 88°
2026-05-03 21:25 48.50720 -71.30569 9372 ft 212 kts 88°
2026-05-03 21:25 48.50773 -71.28339 9781 ft 214 kts 88°
2026-05-03 21:25 48.50825 -71.26086 10155 ft 216 kts 89°
2026-05-03 21:25 48.50878 -71.23803 10538 ft 218 kts 88°
2026-05-03 21:26 48.50931 -71.21507 10916 ft 220 kts 88°
2026-05-03 21:26 48.50982 -71.19193 11309 ft 221 kts 88°
2026-05-03 21:26 48.51033 -71.16871 11706 ft 223 kts 88°
2026-05-03 21:26 48.51085 -71.14532 12101 ft 224 kts 88°
2026-05-03 21:27 48.51136 -71.12184 12505 ft 225 kts 88°
2026-05-03 21:27 48.51187 -71.09823 12912 ft 225 kts 88°
2026-05-03 21:27 48.51237 -71.07459 13321 ft 226 kts 88°
2026-05-03 21:27 48.51287 -71.05088 13727 ft 226 kts 88°
2026-05-03 21:28 48.51337 -71.02712 14098 ft 227 kts 88°
2026-05-03 21:28 48.51387 -71.00336 14473 ft 227 kts 88°
2026-05-03 21:28 48.51437 -70.97956 14847 ft 227 kts 88°
2026-05-03 21:28 48.51485 -70.95575 15231 ft 227 kts 88°
2026-05-03 21:29 48.51532 -70.93197 15619 ft 227 kts 88°
2026-05-03 21:29 48.51580 -70.90814 16012 ft 227 kts 88°
2026-05-03 21:29 48.51628 -70.88434 16414 ft 227 kts 88°
2026-05-03 21:29 48.51680 -70.86058 16823 ft 227 kts 87°
2026-05-03 21:30 48.51733 -70.83715 17225 ft 226 kts 87°
2026-05-03 21:30 48.51782 -70.81344 17641 ft 226 kts 87°
2026-05-03 21:30 48.51830 -70.78975 18052 ft 226 kts 87°
2026-05-03 21:30 48.51876 -70.76614 18427 ft 225 kts 88°
2026-05-03 21:31 48.51921 -70.74262 18788 ft 224 kts 88°
2026-05-03 21:31 48.51965 -70.71923 19156 ft 223 kts 88°
2026-05-03 21:31 48.52008 -70.69598 19529 ft 221 kts 89°
2026-05-03 21:31 48.52052 -70.67286 19914 ft 220 kts 89°
2026-05-03 21:32 48.52094 -70.64980 20231 ft 222 kts 89°
2026-05-03 21:32 48.52134 -70.62629 20509 ft 226 kts 90°
2026-05-03 21:32 48.52168 -70.60240 20755 ft 230 kts 92°
2026-05-03 21:32 48.52204 -70.57805 21030 ft 233 kts 92°
2026-05-03 21:33 48.52244 -70.55344 21305 ft 236 kts 92°
2026-05-03 21:33 48.52287 -70.52854 21574 ft 239 kts 92°
2026-05-03 21:33 48.52328 -70.50335 21836 ft 241 kts 93°
2026-05-03 21:33 48.52366 -70.47799 22114 ft 243 kts 93°
2026-05-03 21:34 48.52407 -70.45246 22401 ft 244 kts 93°
2026-05-03 21:34 48.52449 -70.42673 22679 ft 246 kts 94°
2026-05-03 21:34 48.52490 -70.40093 22961 ft 247 kts 94°
2026-05-03 21:34 48.52531 -70.37500 23249 ft 248 kts 94°
2026-05-03 21:35 48.52571 -70.34903 23505 ft 248 kts 94°
2026-05-03 21:35 48.52610 -70.32295 23740 ft 249 kts 95°
2026-05-03 21:35 48.52648 -70.29685 23977 ft 249 kts 95°
2026-05-03 21:35 48.52686 -70.27077 24213 ft 249 kts 95°
2026-05-03 21:36 48.52723 -70.24468 24449 ft 249 kts 96°
2026-05-03 21:36 48.52751 -70.21863 24696 ft 248 kts 96°
2026-05-03 21:36 48.52789 -70.19260 24945 ft 248 kts 96°
2026-05-03 21:36 48.52828 -70.16658 25193 ft 248 kts 96°
2026-05-03 21:37 48.52863 -70.14066 25426 ft 247 kts 98°
2026-05-03 21:37 48.52897 -70.11480 25690 ft 246 kts 98°
2026-05-03 21:37 48.52933 -70.08903 25952 ft 245 kts 98°
2026-05-03 21:37 48.52967 -70.06340 26195 ft 244 kts 99°
2026-05-03 21:38 48.53000 -70.03768 26368 ft 247 kts 99°
2026-05-03 21:38 48.53028 -70.01166 26499 ft 250 kts 99°
2026-05-03 21:38 48.53054 -69.98560 26635 ft 253 kts 99°
2026-05-03 21:38 48.53082 -69.95889 26777 ft 256 kts 99°
2026-05-03 21:39 48.53114 -69.93186 26915 ft 260 kts 98°
2026-05-03 21:39 48.53454 -69.90397 27068 ft 276 kts 79°
2026-05-03 21:39 48.54334 -69.87792 27209 ft 286 kts 68°
2026-05-03 21:39 48.55324 -69.85179 27341 ft 287 kts 69°
2026-05-03 21:40 48.56298 -69.82541 27493 ft 289 kts 70°
2026-05-03 21:40 48.57273 -69.79882 27629 ft 290 kts 70°
2026-05-03 21:40 48.58251 -69.77210 27766 ft 291 kts 70°
2026-05-03 21:40 48.59234 -69.74526 27918 ft 293 kts 70°
2026-05-03 21:41 48.60221 -69.71830 28054 ft 294 kts 70°
2026-05-03 21:41 48.61209 -69.69129 28197 ft 294 kts 71°
2026-05-03 21:41 48.62201 -69.66413 28345 ft 295 kts 71°
2026-05-03 21:41 48.63194 -69.63692 28487 ft 296 kts 71°
2026-05-03 21:42 48.64188 -69.60965 28576 ft 297 kts 72°
2026-05-03 21:42 48.65181 -69.58228 28718 ft 297 kts 73°
2026-05-03 21:42 48.66180 -69.55480 28766 ft 300 kts 73°
2026-05-03 21:42 48.67187 -69.52696 28782 ft 304 kts 73°
2026-05-03 21:43 48.69248 -69.46997 28793 ft 312 kts 72°
2026-05-03 21:43 48.71349 -69.41185 28791 ft 317 kts 72°
2026-05-03 21:44 48.73479 -69.35286 28801 ft 321 kts 72°
2026-05-03 21:44 48.75633 -69.29302 28801 ft 325 kts 72°
2026-05-03 21:45 48.77803 -69.23272 28792 ft 327 kts 72°
2026-05-03 21:45 48.79987 -69.17194 28789 ft 329 kts 73°
2026-05-03 21:46 48.82157 -69.11131 28797 ft 330 kts 73°
2026-05-03 21:46 48.84345 -69.04999 28795 ft 331 kts 73°
2026-05-03 21:47 48.86535 -68.98848 28802 ft 332 kts 73°
2026-05-03 21:47 48.88729 -68.92682 28791 ft 331 kts 74°
2026-05-03 21:48 48.90913 -68.86521 28798 ft 331 kts 74°
2026-05-03 21:48 48.93097 -68.80345 28800 ft 332 kts 74°
2026-05-03 21:49 48.94923 -68.75172 28796 ft 331 kts 74°
2026-05-03 21:49 48.97101 -68.68988 28797 ft 332 kts 74°
2026-05-03 21:50 48.99263 -68.62832 28794 ft 332 kts 74°
2026-05-03 21:50 49.01435 -68.56638 28797 ft 332 kts 75°
2026-05-03 21:51 49.03604 -68.50440 28794 ft 331 kts 75°
2026-05-03 21:51 49.05766 -68.44244 28794 ft 331 kts 75°
2026-05-03 21:52 49.07923 -68.38048 28783 ft 331 kts 75°
2026-05-03 21:52 49.10076 -68.31845 28746 ft 331 kts 74°
2026-05-03 21:53 49.12221 -68.25652 28779 ft 330 kts 74°
2026-05-03 21:53 49.14929 -68.19811 28784 ft 348 kts 56°
2026-05-03 21:54 49.18349 -68.14565 28744 ft 349 kts 55°
2026-05-03 21:54 49.20074 -68.11852 28253 ft 363 kts 55°
2026-05-03 21:54 49.21840 -68.09060 27758 ft 366 kts 54°
2026-05-03 21:55 49.23625 -68.06253 27251 ft 369 kts 53°
2026-05-03 21:55 49.25417 -68.03445 26725 ft 369 kts 52°
2026-05-03 21:55 49.27213 -68.00634 26208 ft 369 kts 52°
2026-05-03 21:55 49.29008 -67.97822 25710 ft 370 kts 51°
2026-05-03 21:56 49.30807 -67.95004 25217 ft 370 kts 51°
2026-05-03 21:56 49.32601 -67.92188 24730 ft 369 kts 50°
2026-05-03 21:56 49.34394 -67.89371 24256 ft 370 kts 50°
2026-05-03 21:56 49.36192 -67.86543 23788 ft 370 kts 49°
2026-05-03 21:57 49.37988 -67.83712 23312 ft 370 kts 49°
2026-05-03 21:57 49.39784 -67.80883 22744 ft 370 kts 49°
2026-05-03 21:57 49.41575 -67.78055 22194 ft 370 kts 49°
2026-05-03 21:57 49.43371 -67.75212 21652 ft 370 kts 49°
2026-05-03 21:58 49.45161 -67.72376 21127 ft 370 kts 49°
2026-05-03 21:58 49.46928 -67.69578 20611 ft 369 kts 49°
2026-05-03 21:58 49.48730 -67.66705 20099 ft 369 kts 50°
2026-05-03 21:58 49.50507 -67.63854 19592 ft 368 kts 50°
2026-05-03 21:59 49.52284 -67.61012 19097 ft 368 kts 50°
2026-05-03 21:59 49.54061 -67.58173 18614 ft 368 kts 50°
2026-05-03 21:59 49.55835 -67.55341 18133 ft 368 kts 50°
2026-05-03 21:59 49.57613 -67.52498 17594 ft 367 kts 50°
2026-05-03 22:00 49.59383 -67.49666 17043 ft 367 kts 50°
2026-05-03 22:00 49.61128 -67.46866 16522 ft 367 kts 50°
2026-05-03 22:00 49.62883 -67.44038 15992 ft 362 kts 50°
2026-05-03 22:00 49.64614 -67.41248 15472 ft 357 kts 49°
2026-05-03 22:01 49.66330 -67.38502 14980 ft 353 kts 49°
2026-05-03 22:01 49.68019 -67.35802 14457 ft 348 kts 49°
2026-05-03 22:01 49.69650 -67.33158 13971 ft 329 kts 50°
2026-05-03 22:01 49.71182 -67.30653 13464 ft 313 kts 49°
2026-05-03 22:02 49.72669 -67.28276 12911 ft 305 kts 48°
2026-05-03 22:02 49.74165 -67.25944 12438 ft 305 kts 47°
2026-05-03 22:02 49.75675 -67.23611 12066 ft 308 kts 47°
2026-05-03 22:02 49.77178 -67.21235 11700 ft 309 kts 48°
2026-05-03 22:03 49.78654 -67.18836 11339 ft 307 kts 49°
2026-05-03 22:03 49.80117 -67.16442 10983 ft 305 kts 48°
2026-05-03 22:03 49.81567 -67.14067 10637 ft 303 kts 48°
2026-05-03 22:03 49.83012 -67.11710 10284 ft 301 kts 48°
2026-05-03 22:04 49.84455 -67.09373 9937 ft 300 kts 47°
2026-05-03 22:04 49.85889 -67.07041 9583 ft 298 kts 48°
2026-05-03 22:04 49.87312 -67.04723 9200 ft 297 kts 47°
2026-05-03 22:04 49.88725 -67.02414 8825 ft 292 kts 48°
2026-05-03 22:05 49.90108 -67.00150 8465 ft 287 kts 47°
2026-05-03 22:05 49.91476 -66.97932 8117 ft 282 kts 47°
2026-05-03 22:05 49.92811 -66.95759 7777 ft 275 kts 48°
2026-05-03 22:05 49.94107 -66.93631 7443 ft 268 kts 47°
2026-05-03 22:06 49.95383 -66.91570 7168 ft 262 kts 48°
2026-05-03 22:06 49.96654 -66.89572 6904 ft 258 kts 47°
2026-05-03 22:06 49.97917 -66.87559 6647 ft 262 kts 47°
2026-05-03 22:06 49.99180 -66.85497 6402 ft 265 kts 49°
2026-05-03 22:07 50.00420 -66.83376 6152 ft 265 kts 49°
2026-05-03 22:07 50.01676 -66.81285 5870 ft 265 kts 48°
2026-05-03 22:07 50.02964 -66.79243 5579 ft 264 kts 48°
2026-05-03 22:07 50.04218 -66.77183 5291 ft 262 kts 49°
2026-05-03 22:08 50.05460 -66.75119 4990 ft 260 kts 48°
2026-05-03 22:08 50.06713 -66.73095 4692 ft 259 kts 47°
2026-05-03 22:08 50.07946 -66.71070 4381 ft 257 kts 48°
2026-05-03 22:08 50.09165 -66.69059 4057 ft 254 kts 48°
2026-05-03 22:09 50.10368 -66.67056 3737 ft 252 kts 48°
2026-05-03 22:09 50.11563 -66.65082 3419 ft 248 kts 48°
2026-05-03 22:09 50.12680 -66.63185 3238 ft 212 kts 52°
2026-05-03 22:10 50.13803 -66.59859 3207 ft 177 kts 67°
2026-05-03 22:10 50.14273 -66.57996 3207 ft 191 kts 71°
2026-05-03 22:10 50.14722 -66.55998 3210 ft 198 kts 72°
2026-05-03 22:10 50.15190 -66.53999 3204 ft 197 kts 70°
2026-05-03 22:11 50.15703 -66.51988 3195 ft 201 kts 69°
2026-05-03 22:11 50.16222 -66.49990 3196 ft 203 kts 69°
2026-05-03 22:11 50.16733 -66.47956 3027 ft 191 kts 71°
2026-05-03 22:11 50.17198 -66.46049 2759 ft 185 kts 70°
2026-05-03 22:12 50.17662 -66.44229 2508 ft 176 kts 70°
2026-05-03 22:12 50.18104 -66.42479 2270 ft 172 kts 71°
2026-05-03 22:12 50.18543 -66.40733 2013 ft 175 kts 72°
2026-05-03 22:12 50.18961 -66.38998 1788 ft 156 kts 74°
2026-05-03 22:13 50.19310 -66.37614 1591 ft 123 kts 74°
2026-05-03 22:13 50.19603 -66.36472 1431 ft 106 kts 75°
2026-05-03 22:13 50.19861 -66.35425 1288 ft 103 kts 75°
2026-05-03 22:13 50.20105 -66.34430 1145 ft 96 kts 75°
2026-05-03 22:14 50.20344 -66.33447 1001 ft 100 kts 73°
2026-05-03 22:14 50.20605 -66.32367 853 ft 106 kts 72°
2026-05-03 22:14 50.20842 -66.31428 699 ft 85 kts 70°
2026-05-03 22:14 50.21086 -66.30574 583 ft 87 kts 67°
2026-05-03 22:15 50.21312 -66.29654 489 ft 92 kts 72°
2026-05-03 22:15 50.21541 -66.28692 333 ft 92 kts 71°
2026-05-03 22:15 50.21768 -66.27770 203 ft 84 kts 70°
2026-05-03 22:15 50.21953 -66.27029 183 ft 64 kts 69°
2026-05-03 22:16 50.22098 -66.26443 178 ft 54 kts 70°
2026-05-03 22:16 50.22230 -66.25904 172 ft 53 kts 68°
2026-05-03 22:16 50.22347 -66.25420 176 ft 36 kts 70°
2026-05-03 22:16 50.22356 -66.25287 177 ft 2 kts 133°
2026-05-03 22:17 50.22252 -66.25250 174 ft 21 kts 181°
2026-05-03 22:17 50.22145 -66.25282 174 ft 15 kts 246°
2026-05-03 22:17 50.22099 -66.25470 174 ft 24 kts 247°
2026-05-03 22:17 50.22038 -66.25711 174 ft 18 kts 249°
2026-05-03 22:18 50.21993 -66.25898 174 ft 22 kts 249°
2026-05-03 22:18 50.21928 -66.26164 174 ft 30 kts 249°
2026-05-03 22:18 50.21914 -66.26465 174 ft 21 kts 252°
2026-05-03 22:18 50.21894 -66.26546 174 ft 0 kts 200°